Nearby METAR Reports

 

KSJC - San Jose, California, USA
Distance from station: NE 9mi, 14km
Updated: Wed, 22-May-2024 4:53pm PDT
Clear
Clear
 Wind from N
Wind: N 15 mph, 24 km/h, Gust: 25 mph, 41 km/h
Temperature: 73°F, 23°C
Dew Point: 54°F, 12°C
Humidity: 50%
Barometer: 29.90 inHg, 1012.5 hPa
Clouds: Clear
Visibility: 10 miles, 16 km
2024/05/22 23:53 KSJC 222353Z 36013G22KT 10SM CLR 23/12 A2990 RMK AO2 SLP125 T02330117 10256 20206 56011
KNUQ - Moffett Nas/Mtn, California, USA
Distance from station: N 9mi, 14km
Updated: Wed, 22-May-2024 5:15pm PDT
Clear
Clear
 Wind from NNW
Wind: NNW 16 mph, 26 km/h, Gust: 23 mph, 37 km/h
Temperature: 73°F, 23°C
Dew Point: 52°F, 11°C
Humidity: 47%
Barometer: 29.90 inHg, 1012.5 hPa
Clouds: Clear
Visibility: 9 miles, 14 km
2024/05/23 00:15 KNUQ 230015Z AUTO 34014G20KT 9SM CLR 23/11 A2990 RMK AO2
 
KPAO - Palo Alto, California, USA
Distance from station: NNW 14mi, 23km
Updated: Wed, 22-May-2024 4:47pm PDT
Clear
Clear
 Wind from NW
Wind: NW 17 mph, 28 km/h
Temperature: 73°F, 23°C
Dew Point: 52°F, 11°C
Humidity: 47%
Barometer: 29.91 inHg, 1012.9 hPa
Clouds: Clear
Visibility: 10 miles, 16 km
2024/05/22 23:47 KPAO 222347Z 31015KT 10SM SKC 23/11 A2991 FU
KRHV - San Jose/Reid, California, USA
Distance from station: ENE 12mi, 19km
Updated: Wed, 22-May-2024 4:47pm PDT
Clear
Clear
 Wind from NNW
Wind: NNW 16 mph, 26 km/h
Temperature: 75°F, 24°C
Dew Point: 54°F, 12°C
Humidity: 47%
Barometer: 29.91 inHg, 1012.9 hPa
Clouds: Clear
Visibility: 10 miles, 16 km
2024/05/22 23:47 KRHV 222347Z 33014KT 10SM SKC 24/12 A2991
 
KOAK - Oakland, California, USA
Distance from station: NNW 31mi, 50km
Updated: Wed, 22-May-2024 4:53pm PDT
Clear
Clear
 Wind from W
Wind: W 16 mph, 26 km/h
Temperature: 66°F, 19°C
Dew Point: 52°F, 11°C
Humidity: 60%
Barometer: 29.92 inHg, 1013.2 hPa
Clouds: Clear
Visibility: 10 miles, 16 km
2024/05/22 23:53 KOAK 222353Z 27014KT 10SM CLR 19/11 A2992 RMK AO2 PRESFR SLP132 T01890111 10200 20167 58019
KSQL - San Carlos Airpo, California, USA
Distance from station: NW 21mi, 34km
Updated: Wed, 22-May-2024 4:47pm PDT
Clear
Clear
 Wind from W
Wind: W 18 mph, 30 km/h, Gust: 28 mph, 44 km/h
Temperature: 66°F, 19°C
Dew Point: 50°F, 10°C
Humidity: 56%
Barometer: 29.93 inHg, 1013.5 hPa
Clouds: Clear
Visibility: 10 miles, 16 km
2024/05/22 23:47 KSQL 222347Z 26016G24KT 10SM CLR 19/10 A2993
 
KSFO - San Francisco, California, USA
Distance from station: NW 30mi, 49km
Updated: Wed, 22-May-2024 4:56pm PDT
Few Clouds
Few Clouds
 Wind from WNW
Wind: WNW 22 mph, 35 km/h, Gust: 32 mph, 52 km/h
Temperature: 64°F, 18°C
Dew Point: 48°F, 9°C
Humidity: 56%
Barometer: 29.92 inHg, 1013.2 hPa
Clouds: Few Clouds
Visibility: 10 miles, 16 km
Cloud details: Few Clouds 1400 ft
2024/05/22 23:56 KSFO 222356Z 29019G28KT 10SM FEW014 18/09 A2992 RMK AO2 PK WND 29031/2341 SLP133 T01830094 10200 20183 58013
KE16 - San Martin, California, USA
Distance from station: ESE 27mi, 43km
Updated: Wed, 22-May-2024 5:15pm PDT
Clear
Clear
 Wind from ESE
Wind: ESE 14 mph, 22 km/h
Temperature: 70°F, 21°C
Dew Point: 54°F, 12°C
Humidity: 57%
Barometer: 29.92 inHg, 1013.2 hPa
Clouds: Clear
Visibility: 10 miles, 16 km
2024/05/23 00:15 KE16 230015Z AUTO 12012KT 10SM CLR 21/12 A2992 RMK AO2 PWINO PNO
 
KWVI - Watsonville, California, USA
Distance from station: SSE 27mi, 44km
Updated: Wed, 22-May-2024 4:53pm PDT
Clear
Clear
 Wind from SSE
Wind: SSE 9 mph, 15 km/h
Temperature: 63°F, 17°C
Dew Point: 54°F, 12°C
Humidity: 73%
Barometer: 29.95 inHg, 1014.2 hPa
Clouds: Clear
Visibility: 10 miles, 16 km
2024/05/22 23:53 KWVI 222353Z AUTO 15008KT 10SM CLR 17/12 A2995 RMK AO2 SLP142 T01670117 10178 20150 58014
KHAF - Half Moon Bay, California, USA
Distance from station: WNW 31mi, 50km
Updated: Wed, 22-May-2024 5:15pm PDT
Haze, Mostly cloudy
Haze, Mostly cloudy
 Wind from NW
Wind: NW 12 mph, 19 km/h
Temperature: 57°F, 14°C
Dew Point: 54°F, 12°C
Humidity: 88%
Barometer: 29.98 inHg, 1015.2 hPa
Summary: Haze
Clouds: Mostly cloudy
Visibility: 5 miles, 8 km
Cloud details: Mostly cloudy 1500 ft
2024/05/23 00:15 KHAF 230015Z AUTO 32010KT 5SM HZ BKN015 14/12 A2998 RMK AO2
 
KHWD - Hayward, California, USA
Distance from station: N 28mi, 44km
Updated: Wed, 22-May-2024 4:54pm PDT
Clear
Clear
 Wind from W
Wind: W 14 mph, 22 km/h
Temperature: 68°F, 20°C
Dew Point: 52°F, 11°C
Humidity: 56%
Barometer: 29.92 inHg, 1013.2 hPa
Clouds: Clear
Visibility: 10 miles, 16 km
2024/05/22 23:54 KHWD 222354Z 27012KT 10SM CLR 20/11 A2992 RMK AO2 SLP140 T02000111 10217 20189 57010
KLVK - Livermore, California, USA
Distance from station: NNE 31mi, 51km
Updated: Wed, 22-May-2024 4:53pm PDT
Clear
Clear
 Wind from W
Wind: W 14 mph, 22 km/h
Temperature: 79°F, 26°C
Dew Point: 46°F, 8°C
Humidity: 32%
Barometer: 29.88 inHg, 1011.9 hPa
Clouds: Clear
Visibility: 10 miles, 16 km
2024/05/22 23:53 KLVK 222353Z 27012KT 10SM CLR 26/08 A2988 RMK AO2 SLP113 T02610078 10267 20206 56013